sensor_id;sensor_type;location;lat;lon;timestamp;P1;durP1;ratioP1;P2;durP2;ratioP2
1475;SDS011;730;48.870;12.542;2023-12-14T00:01:25;15.10;;;12.98;;
1475;SDS011;730;48.870;12.542;2023-12-14T00:03:51;12.97;;;11.67;;
1475;SDS011;730;48.870;12.542;2023-12-14T00:06:17;15.93;;;14.43;;
1475;SDS011;730;48.870;12.542;2023-12-14T00:08:43;13.37;;;12.13;;
1475;SDS011;730;48.870;12.542;2023-12-14T00:11:10;14.70;;;13.23;;
1475;SDS011;730;48.870;12.542;2023-12-14T00:13:39;14.40;;;11.30;;
1475;SDS011;730;48.870;12.542;2023-12-14T00:16:05;11.40;;;10.37;;
1475;SDS011;730;48.870;12.542;2023-12-14T00:18:32;10.98;;;9.93;;
1475;SDS011;730;48.870;12.542;2023-12-14T00:20:58;10.07;;;9.20;;
1475;SDS011;730;48.870;12.542;2023-12-14T00:23:24;12.77;;;11.23;;
1475;SDS011;730;48.870;12.542;2023-12-14T00:25:50;8.05;;;7.35;;
1475;SDS011;730;48.870;12.542;2023-12-14T00:28:16;7.07;;;6.45;;
1475;SDS011;730;48.870;12.542;2023-12-14T00:30:42;6.68;;;6.07;;
1475;SDS011;730;48.870;12.542;2023-12-14T00:33:08;7.13;;;6.43;;
1475;SDS011;730;48.870;12.542;2023-12-14T00:35:34;7.10;;;6.45;;
1475;SDS011;730;48.870;12.542;2023-12-14T00:38:00;7.13;;;6.45;;
1475;SDS011;730;48.870;12.542;2023-12-14T00:40:33;6.47;;;5.80;;
1475;SDS011;730;48.870;12.542;2023-12-14T00:42:59;6.45;;;5.85;;
1475;SDS011;730;48.870;12.542;2023-12-14T00:45:25;6.30;;;5.77;;
1475;SDS011;730;48.870;12.542;2023-12-14T00:47:51;6.33;;;5.77;;
1475;SDS011;730;48.870;12.542;2023-12-14T00:50:17;6.38;;;5.72;;
1475;SDS011;730;48.870;12.542;2023-12-14T00:52:47;5.80;;;5.13;;
1475;SDS011;730;48.870;12.542;2023-12-14T00:55:13;5.50;;;5.00;;
1475;SDS011;730;48.870;12.542;2023-12-14T00:57:39;5.10;;;4.60;;
1475;SDS011;730;48.870;12.542;2023-12-14T01:00:05;5.47;;;4.97;;
1475;SDS011;730;48.870;12.542;2023-12-14T01:02:32;5.97;;;4.72;;
1475;SDS011;730;48.870;12.542;2023-12-14T01:04:58;5.00;;;4.50;;
1475;SDS011;730;48.870;12.542;2023-12-14T01:07:24;7.60;;;4.87;;
1475;SDS011;730;48.870;12.542;2023-12-14T01:09:50;4.82;;;4.32;;
1475;SDS011;730;48.870;12.542;2023-12-14T01:12:16;5.60;;;5.00;;
1475;SDS011;730;48.870;12.542;2023-12-14T01:14:42;4.88;;;4.38;;
1475;SDS011;730;48.870;12.542;2023-12-14T01:17:08;5.33;;;4.83;;
1475;SDS011;730;48.870;12.542;2023-12-14T01:19:34;5.20;;;4.70;;
1475;SDS011;730;48.870;12.542;2023-12-14T01:22:00;5.27;;;4.77;;
1475;SDS011;730;48.870;12.542;2023-12-14T01:24:26;5.22;;;4.75;;
1475;SDS011;730;48.870;12.542;2023-12-14T01:26:52;5.85;;;5.25;;
1475;SDS011;730;48.870;12.542;2023-12-14T01:29:18;5.78;;;5.18;;
1475;SDS011;730;48.870;12.542;2023-12-14T01:31:44;6.57;;;5.35;;
1475;SDS011;730;48.870;12.542;2023-12-14T01:34:10;6.35;;;5.75;;
1475;SDS011;730;48.870;12.542;2023-12-14T01:36:37;7.03;;;6.32;;
1475;SDS011;730;48.870;12.542;2023-12-14T01:39:04;10.60;;;9.50;;
1475;SDS011;730;48.870;12.542;2023-12-14T01:41:31;8.15;;;7.35;;
1475;SDS011;730;48.870;12.542;2023-12-14T01:43:57;9.40;;;7.50;;
1475;SDS011;730;48.870;12.542;2023-12-14T01:46:23;8.52;;;7.45;;
1475;SDS011;730;48.870;12.542;2023-12-14T01:48:49;8.93;;;8.02;;
1475;SDS011;730;48.870;12.542;2023-12-14T01:51:15;9.52;;;8.30;;
1475;SDS011;730;48.870;12.542;2023-12-14T01:53:41;10.07;;;9.07;;
1475;SDS011;730;48.870;12.542;2023-12-14T01:56:07;9.30;;;8.27;;
1475;SDS011;730;48.870;12.542;2023-12-14T01:58:33;10.15;;;9.15;;
1475;SDS011;730;48.870;12.542;2023-12-14T02:01:20;9.93;;;8.60;;
1475;SDS011;730;48.870;12.542;2023-12-14T02:03:56;9.30;;;8.30;;
1475;SDS011;730;48.870;12.542;2023-12-14T02:06:22;9.15;;;8.25;;
1475;SDS011;730;48.870;12.542;2023-12-14T02:08:48;8.07;;;7.00;;
1475;SDS011;730;48.870;12.542;2023-12-14T02:11:14;7.80;;;6.93;;
1475;SDS011;730;48.870;12.542;2023-12-14T02:13:40;8.13;;;7.30;;
1475;SDS011;730;48.870;12.542;2023-12-14T02:16:06;6.63;;;5.90;;
1475;SDS011;730;48.870;12.542;2023-12-14T02:18:32;6.18;;;5.57;;
1475;SDS011;730;48.870;12.542;2023-12-14T02:20:58;5.63;;;5.00;;
1475;SDS011;730;48.870;12.542;2023-12-14T02:23:24;5.85;;;5.25;;
1475;SDS011;730;48.870;12.542;2023-12-14T02:25:50;6.28;;;5.60;;
1475;SDS011;730;48.870;12.542;2023-12-14T02:28:16;4.68;;;4.28;;
1475;SDS011;730;48.870;12.542;2023-12-14T02:30:42;4.32;;;3.92;;
1475;SDS011;730;48.870;12.542;2023-12-14T02:33:09;3.92;;;3.33;;
1475;SDS011;730;48.870;12.542;2023-12-14T02:35:35;4.28;;;3.25;;
1475;SDS011;730;48.870;12.542;2023-12-14T02:38:01;4.75;;;3.60;;
1475;SDS011;730;48.870;12.542;2023-12-14T02:40:27;3.88;;;2.92;;
1475;SDS011;730;48.870;12.542;2023-12-14T02:42:53;3.63;;;2.83;;
1475;SDS011;730;48.870;12.542;2023-12-14T02:45:19;4.37;;;3.50;;
1475;SDS011;730;48.870;12.542;2023-12-14T02:47:45;3.00;;;2.70;;
1475;SDS011;730;48.870;12.542;2023-12-14T02:50:13;3.30;;;3.00;;
1475;SDS011;730;48.870;12.542;2023-12-14T02:52:39;3.72;;;3.30;;
1475;SDS011;730;48.870;12.542;2023-12-14T02:55:05;4.20;;;3.30;;
1475;SDS011;730;48.870;12.542;2023-12-14T02:57:31;4.10;;;3.70;;
1475;SDS011;730;48.870;12.542;2023-12-14T02:59:57;3.95;;;3.58;;
1475;SDS011;730;48.870;12.542;2023-12-14T03:02:23;3.30;;;3.00;;
1475;SDS011;730;48.870;12.542;2023-12-14T03:04:49;3.23;;;2.93;;
1475;SDS011;730;48.870;12.542;2023-12-14T03:07:16;3.15;;;2.78;;
1475;SDS011;730;48.870;12.542;2023-12-14T03:09:42;4.32;;;3.20;;
1475;SDS011;730;48.870;12.542;2023-12-14T03:12:10;4.60;;;2.95;;
1475;SDS011;730;48.870;12.542;2023-12-14T03:14:36;3.35;;;3.00;;
1475;SDS011;730;48.870;12.542;2023-12-14T03:17:02;2.50;;;2.20;;
1475;SDS011;730;48.870;12.542;2023-12-14T03:19:28;3.13;;;2.20;;
1475;SDS011;730;48.870;12.542;2023-12-14T03:21:54;4.97;;;2.30;;
1475;SDS011;730;48.870;12.542;2023-12-14T03:24:20;3.90;;;2.28;;
1475;SDS011;730;48.870;12.542;2023-12-14T03:26:46;3.70;;;2.30;;
1475;SDS011;730;48.870;12.542;2023-12-14T03:29:12;3.50;;;2.10;;
1475;SDS011;730;48.870;12.542;2023-12-14T03:31:38;2.50;;;1.92;;
1475;SDS011;730;48.870;12.542;2023-12-14T03:34:05;2.63;;;1.60;;
1475;SDS011;730;48.870;12.542;2023-12-14T03:36:31;1.95;;;1.75;;
1475;SDS011;730;48.870;12.542;2023-12-14T03:38:57;2.45;;;1.73;;
1475;SDS011;730;48.870;12.542;2023-12-14T03:41:23;2.25;;;1.77;;
1475;SDS011;730;48.870;12.542;2023-12-14T03:43:49;3.25;;;2.15;;
1475;SDS011;730;48.870;12.542;2023-12-14T03:46:15;1.90;;;1.70;;
1475;SDS011;730;48.870;12.542;2023-12-14T03:48:41;3.38;;;2.58;;
1475;SDS011;730;48.870;12.542;2023-12-14T03:51:07;1.80;;;1.52;;
1475;SDS011;730;48.870;12.542;2023-12-14T03:53:33;2.17;;;1.90;;
1475;SDS011;730;48.870;12.542;2023-12-14T03:56:00;2.30;;;1.98;;
1475;SDS011;730;48.870;12.542;2023-12-14T03:58:26;2.92;;;2.40;;
1475;SDS011;730;48.870;12.542;2023-12-14T04:00:52;2.35;;;2.03;;
1475;SDS011;730;48.870;12.542;2023-12-14T04:03:18;2.60;;;2.00;;
1475;SDS011;730;48.870;12.542;2023-12-14T04:05:44;2.20;;;1.95;;
1475;SDS011;730;48.870;12.542;2023-12-14T04:08:10;2.40;;;2.20;;
1475;SDS011;730;48.870;12.542;2023-12-14T04:10:36;2.58;;;2.38;;
1475;SDS011;730;48.870;12.542;2023-12-14T04:13:09;2.90;;;2.60;;
1475;SDS011;730;48.870;12.542;2023-12-14T04:15:35;3.10;;;2.30;;
1475;SDS011;730;48.870;12.542;2023-12-14T04:18:01;2.63;;;2.35;;
1475;SDS011;730;48.870;12.542;2023-12-14T04:20:27;3.17;;;2.60;;
1475;SDS011;730;48.870;12.542;2023-12-14T04:22:53;3.03;;;2.40;;
1475;SDS011;730;48.870;12.542;2023-12-14T04:25:20;4.50;;;2.45;;
1475;SDS011;730;48.870;12.542;2023-12-14T04:27:46;2.95;;;2.42;;
1475;SDS011;730;48.870;12.542;2023-12-14T04:30:12;2.85;;;2.40;;
1475;SDS011;730;48.870;12.542;2023-12-14T04:32:38;4.85;;;2.60;;
1475;SDS011;730;48.870;12.542;2023-12-14T04:35:04;3.10;;;2.80;;
1475;SDS011;730;48.870;12.542;2023-12-14T04:37:31;3.70;;;2.80;;
1475;SDS011;730;48.870;12.542;2023-12-14T04:39:57;2.95;;;2.60;;
1475;SDS011;730;48.870;12.542;2023-12-14T04:42:23;3.58;;;2.83;;
1475;SDS011;730;48.870;12.542;2023-12-14T04:44:49;3.20;;;2.90;;
1475;SDS011;730;48.870;12.542;2023-12-14T04:47:16;3.00;;;2.70;;
1475;SDS011;730;48.870;12.542;2023-12-14T04:49:42;3.65;;;2.80;;
1475;SDS011;730;48.870;12.542;2023-12-14T04:52:08;3.88;;;3.50;;
1475;SDS011;730;48.870;12.542;2023-12-14T04:54:34;3.60;;;3.17;;
1475;SDS011;730;48.870;12.542;2023-12-14T04:57:03;3.55;;;2.92;;
1475;SDS011;730;48.870;12.542;2023-12-14T04:59:29;3.35;;;2.70;;
1475;SDS011;730;48.870;12.542;2023-12-14T05:01:55;4.03;;;3.38;;
1475;SDS011;730;48.870;12.542;2023-12-14T05:04:21;3.67;;;3.17;;
1475;SDS011;730;48.870;12.542;2023-12-14T05:06:47;3.80;;;3.35;;
1475;SDS011;730;48.870;12.542;2023-12-14T05:12:07;3.10;;;2.80;;
1475;SDS011;730;48.870;12.542;2023-12-14T05:14:33;4.18;;;3.00;;
1475;SDS011;730;48.870;12.542;2023-12-14T05:16:59;3.13;;;2.83;;
1475;SDS011;730;48.870;12.542;2023-12-14T05:19:25;6.07;;;3.50;;
1475;SDS011;730;48.870;12.542;2023-12-14T05:21:52;4.65;;;3.40;;
1475;SDS011;730;48.870;12.542;2023-12-14T05:24:19;4.00;;;3.63;;
1475;SDS011;730;48.870;12.542;2023-12-14T05:26:46;4.80;;;3.35;;
1475;SDS011;730;48.870;12.542;2023-12-14T05:29:12;3.17;;;2.72;;
1475;SDS011;730;48.870;12.542;2023-12-14T05:31:38;3.75;;;3.45;;
1475;SDS011;730;48.870;12.542;2023-12-14T05:34:04;3.88;;;3.15;;
1475;SDS011;730;48.870;12.542;2023-12-14T05:36:31;4.07;;;3.67;;
1475;SDS011;730;48.870;12.542;2023-12-14T05:38:57;4.47;;;3.75;;
1475;SDS011;730;48.870;12.542;2023-12-14T05:41:23;4.57;;;3.67;;
1475;SDS011;730;48.870;12.542;2023-12-14T05:43:49;3.72;;;3.40;;
1475;SDS011;730;48.870;12.542;2023-12-14T05:46:21;4.93;;;3.90;;
1475;SDS011;730;48.870;12.542;2023-12-14T05:48:48;6.43;;;4.05;;
1475;SDS011;730;48.870;12.542;2023-12-14T05:51:27;4.88;;;3.38;;
1475;SDS011;730;48.870;12.542;2023-12-14T05:53:57;4.82;;;3.92;;
1475;SDS011;730;48.870;12.542;2023-12-14T05:56:23;5.28;;;3.60;;
1475;SDS011;730;48.870;12.542;2023-12-14T05:58:51;3.97;;;3.35;;
1475;SDS011;730;48.870;12.542;2023-12-14T06:01:17;4.53;;;4.13;;
1475;SDS011;730;48.870;12.542;2023-12-14T06:03:44;4.80;;;4.35;;
1475;SDS011;730;48.870;12.542;2023-12-14T06:06:10;4.90;;;4.32;;
1475;SDS011;730;48.870;12.542;2023-12-14T06:08:38;5.45;;;4.95;;
1475;SDS011;730;48.870;12.542;2023-12-14T06:11:04;5.10;;;4.57;;
1475;SDS011;730;48.870;12.542;2023-12-14T06:13:33;4.68;;;4.20;;
1475;SDS011;730;48.870;12.542;2023-12-14T06:16:01;4.78;;;4.30;;
1475;SDS011;730;48.870;12.542;2023-12-14T06:18:28;5.38;;;4.82;;
1475;SDS011;730;48.870;12.542;2023-12-14T06:20:54;6.25;;;5.10;;
1475;SDS011;730;48.870;12.542;2023-12-14T06:23:20;6.40;;;4.60;;
1475;SDS011;730;48.870;12.542;2023-12-14T06:25:46;5.50;;;4.75;;
1475;SDS011;730;48.870;12.542;2023-12-14T06:28:12;7.25;;;5.50;;
1475;SDS011;730;48.870;12.542;2023-12-14T06:30:38;5.57;;;5.05;;
1475;SDS011;730;48.870;12.542;2023-12-14T06:33:04;6.25;;;5.45;;
1475;SDS011;730;48.870;12.542;2023-12-14T06:35:31;6.13;;;5.53;;
1475;SDS011;730;48.870;12.542;2023-12-14T06:37:57;5.93;;;5.05;;
1475;SDS011;730;48.870;12.542;2023-12-14T06:40:23;6.82;;;4.88;;
1475;SDS011;730;48.870;12.542;2023-12-14T06:42:49;5.68;;;4.82;;
1475;SDS011;730;48.870;12.542;2023-12-14T06:45:15;6.70;;;6.00;;
1475;SDS011;730;48.870;12.542;2023-12-14T06:47:41;7.63;;;5.40;;
1475;SDS011;730;48.870;12.542;2023-12-14T06:50:09;6.45;;;5.50;;
1475;SDS011;730;48.870;12.542;2023-12-14T06:52:35;5.72;;;4.72;;
1475;SDS011;730;48.870;12.542;2023-12-14T06:55:02;4.97;;;4.40;;
1475;SDS011;730;48.870;12.542;2023-12-14T06:57:28;6.47;;;5.35;;
1475;SDS011;730;48.870;12.542;2023-12-14T06:59:54;7.35;;;6.03;;
1475;SDS011;730;48.870;12.542;2023-12-14T07:02:20;7.00;;;5.70;;
1475;SDS011;730;48.870;12.542;2023-12-14T07:04:46;8.98;;;6.15;;
1475;SDS011;730;48.870;12.542;2023-12-14T07:07:12;6.90;;;5.70;;
1475;SDS011;730;48.870;12.542;2023-12-14T07:09:38;6.32;;;5.72;;
1475;SDS011;730;48.870;12.542;2023-12-14T07:12:04;6.78;;;5.80;;
1475;SDS011;730;48.870;12.542;2023-12-14T07:14:30;6.22;;;5.55;;
1475;SDS011;730;48.870;12.542;2023-12-14T07:16:56;6.88;;;6.05;;
1475;SDS011;730;48.870;12.542;2023-12-14T07:19:22;7.18;;;6.47;;
1475;SDS011;730;48.870;12.542;2023-12-14T07:21:48;7.32;;;6.30;;
1475;SDS011;730;48.870;12.542;2023-12-14T07:24:14;9.00;;;6.80;;
1475;SDS011;730;48.870;12.542;2023-12-14T07:26:40;7.50;;;5.97;;
1475;SDS011;730;48.870;12.542;2023-12-14T07:29:07;9.68;;;6.63;;
1475;SDS011;730;48.870;12.542;2023-12-14T07:31:33;7.97;;;7.05;;
1475;SDS011;730;48.870;12.542;2023-12-14T07:33:59;8.65;;;7.32;;
1475;SDS011;730;48.870;12.542;2023-12-14T07:36:25;10.23;;;7.03;;
1475;SDS011;730;48.870;12.542;2023-12-14T07:38:51;7.80;;;6.25;;
1475;SDS011;730;48.870;12.542;2023-12-14T07:41:18;10.80;;;6.35;;
1475;SDS011;730;48.870;12.542;2023-12-14T07:43:44;6.45;;;5.85;;
1475;SDS011;730;48.870;12.542;2023-12-14T07:46:10;7.78;;;6.10;;
1475;SDS011;730;48.870;12.542;2023-12-14T07:48:36;7.65;;;6.60;;
1475;SDS011;730;48.870;12.542;2023-12-14T07:51:02;7.20;;;6.50;;
1475;SDS011;730;48.870;12.542;2023-12-14T07:53:28;8.95;;;7.10;;
1475;SDS011;730;48.870;12.542;2023-12-14T07:55:54;8.70;;;6.45;;
1475;SDS011;730;48.870;12.542;2023-12-14T07:58:21;7.97;;;6.57;;
1475;SDS011;730;48.870;12.542;2023-12-14T08:00:47;6.70;;;5.68;;
1475;SDS011;730;48.870;12.542;2023-12-14T08:03:14;7.63;;;6.82;;
1475;SDS011;730;48.870;12.542;2023-12-14T08:05:40;7.95;;;6.75;;
1475;SDS011;730;48.870;12.542;2023-12-14T08:08:06;6.97;;;6.10;;
1475;SDS011;730;48.870;12.542;2023-12-14T08:10:32;7.57;;;6.40;;
1475;SDS011;730;48.870;12.542;2023-12-14T08:12:58;9.80;;;7.20;;
1475;SDS011;730;48.870;12.542;2023-12-14T08:15:24;10.57;;;7.57;;
1475;SDS011;730;48.870;12.542;2023-12-14T08:17:50;7.97;;;6.43;;
1475;SDS011;730;48.870;12.542;2023-12-14T08:20:16;8.33;;;7.43;;
1475;SDS011;730;48.870;12.542;2023-12-14T08:22:42;9.45;;;7.45;;
1475;SDS011;730;48.870;12.542;2023-12-14T08:25:13;7.75;;;6.80;;
1475;SDS011;730;48.870;12.542;2023-12-14T08:27:40;7.80;;;6.93;;
1475;SDS011;730;48.870;12.542;2023-12-14T08:30:06;8.70;;;7.07;;
1475;SDS011;730;48.870;12.542;2023-12-14T08:32:34;11.53;;;7.77;;
1475;SDS011;730;48.870;12.542;2023-12-14T08:35:00;8.85;;;7.38;;
1475;SDS011;730;48.870;12.542;2023-12-14T08:37:27;7.97;;;7.15;;
1475;SDS011;730;48.870;12.542;2023-12-14T08:39:53;11.50;;;8.32;;
1475;SDS011;730;48.870;12.542;2023-12-14T08:42:19;8.43;;;7.18;;
1475;SDS011;730;48.870;12.542;2023-12-14T08:44:45;7.77;;;6.40;;
1475;SDS011;730;48.870;12.542;2023-12-14T08:47:11;8.23;;;6.90;;
1475;SDS011;730;48.870;12.542;2023-12-14T08:49:37;8.05;;;7.25;;
1475;SDS011;730;48.870;12.542;2023-12-14T08:52:03;9.23;;;7.38;;
1475;SDS011;730;48.870;12.542;2023-12-14T08:54:29;8.52;;;6.07;;
1475;SDS011;730;48.870;12.542;2023-12-14T08:56:55;10.27;;;6.97;;
1475;SDS011;730;48.870;12.542;2023-12-14T08:59:21;7.60;;;6.80;;
1475;SDS011;730;48.870;12.542;2023-12-14T09:01:48;8.75;;;7.05;;
1475;SDS011;730;48.870;12.542;2023-12-14T09:04:14;8.57;;;6.70;;
1475;SDS011;730;48.870;12.542;2023-12-14T09:06:40;9.68;;;7.20;;
1475;SDS011;730;48.870;12.542;2023-12-14T09:09:10;14.30;;;10.90;;
1475;SDS011;730;48.870;12.542;2023-12-14T09:11:36;14.57;;;10.90;;
1475;SDS011;730;48.870;12.542;2023-12-14T09:14:02;13.85;;;10.50;;
1475;SDS011;730;48.870;12.542;2023-12-14T09:16:28;9.97;;;7.87;;
1475;SDS011;730;48.870;12.542;2023-12-14T09:18:54;9.27;;;8.07;;
1475;SDS011;730;48.870;12.542;2023-12-14T09:21:20;9.93;;;7.50;;
1475;SDS011;730;48.870;12.542;2023-12-14T09:23:46;9.37;;;7.17;;
1475;SDS011;730;48.870;12.542;2023-12-14T09:26:13;7.80;;;7.00;;
1475;SDS011;730;48.870;12.542;2023-12-14T09:28:39;8.00;;;6.50;;
1475;SDS011;730;48.870;12.542;2023-12-14T09:31:06;9.30;;;6.50;;
1475;SDS011;730;48.870;12.542;2023-12-14T09:33:32;9.73;;;6.70;;
1475;SDS011;730;48.870;12.542;2023-12-14T09:35:58;7.87;;;6.47;;
1475;SDS011;730;48.870;12.542;2023-12-14T09:38:24;7.03;;;6.40;;
1475;SDS011;730;48.870;12.542;2023-12-14T09:40:51;6.63;;;5.93;;
1475;SDS011;730;48.870;12.542;2023-12-14T09:43:17;7.17;;;6.10;;
1475;SDS011;730;48.870;12.542;2023-12-14T09:45:43;6.50;;;5.53;;
1475;SDS011;730;48.870;12.542;2023-12-14T09:48:11;6.57;;;5.30;;
1475;SDS011;730;48.870;12.542;2023-12-14T09:50:38;5.67;;;5.10;;
1475;SDS011;730;48.870;12.542;2023-12-14T09:53:05;7.13;;;5.40;;
1475;SDS011;730;48.870;12.542;2023-12-14T09:55:32;6.57;;;5.80;;
1475;SDS011;730;48.870;12.542;2023-12-14T09:57:59;7.53;;;6.13;;
1475;SDS011;730;48.870;12.542;2023-12-14T10:00:34;7.07;;;6.33;;
1475;SDS011;730;48.870;12.542;2023-12-14T10:03:17;7.40;;;6.70;;
1475;SDS011;730;48.870;12.542;2023-12-14T10:05:43;11.00;;;8.03;;
1475;SDS011;730;48.870;12.542;2023-12-14T10:08:09;11.33;;;7.07;;
1475;SDS011;730;48.870;12.542;2023-12-14T10:10:35;7.77;;;6.87;;
1475;SDS011;730;48.870;12.542;2023-12-14T10:13:01;8.30;;;7.37;;
1475;SDS011;730;48.870;12.542;2023-12-14T10:15:27;9.00;;;8.10;;
1475;SDS011;730;48.870;12.542;2023-12-14T10:17:55;7.93;;;7.23;;
1475;SDS011;730;48.870;12.542;2023-12-14T10:20:22;7.50;;;6.80;;
1475;SDS011;730;48.870;12.542;2023-12-14T10:22:49;7.73;;;6.30;;
1475;SDS011;730;48.870;12.542;2023-12-14T10:25:17;6.77;;;6.03;;
1475;SDS011;730;48.870;12.542;2023-12-14T10:27:47;6.80;;;6.20;;
1475;SDS011;730;48.870;12.542;2023-12-14T10:30:14;7.80;;;5.67;;
1475;SDS011;730;48.870;12.542;2023-12-14T10:32:41;7.07;;;6.13;;
1475;SDS011;730;48.870;12.542;2023-12-14T10:35:07;6.73;;;5.87;;
1475;SDS011;730;48.870;12.542;2023-12-14T10:37:34;8.93;;;6.50;;
1475;SDS011;730;48.870;12.542;2023-12-14T10:40:04;7.67;;;6.87;;
1475;SDS011;730;48.870;12.542;2023-12-14T10:42:37;7.53;;;6.20;;
1475;SDS011;730;48.870;12.542;2023-12-14T10:45:07;10.23;;;8.60;;
1475;SDS011;730;48.870;12.542;2023-12-14T10:47:36;7.83;;;7.03;;
1475;SDS011;730;48.870;12.542;2023-12-14T10:50:04;7.03;;;6.33;;
1475;SDS011;730;48.870;12.542;2023-12-14T10:52:31;7.70;;;6.10;;
1475;SDS011;730;48.870;12.542;2023-12-14T10:55:02;4.57;;;4.03;;
1475;SDS011;730;48.870;12.542;2023-12-14T10:57:33;5.07;;;4.43;;
1475;SDS011;730;48.870;12.542;2023-12-14T11:00:00;5.93;;;4.90;;
1475;SDS011;730;48.870;12.542;2023-12-14T11:02:28;6.67;;;4.77;;
1475;SDS011;730;48.870;12.542;2023-12-14T11:05:00;5.27;;;4.70;;
1475;SDS011;730;48.870;12.542;2023-12-14T11:10:12;5.90;;;5.23;;
1475;SDS011;730;48.870;12.542;2023-12-14T11:12:50;5.67;;;5.17;;
1475;SDS011;730;48.870;12.542;2023-12-14T11:15:18;6.00;;;4.87;;
1475;SDS011;730;48.870;12.542;2023-12-14T11:18:19;5.67;;;4.50;;
1475;SDS011;730;48.870;12.542;2023-12-14T11:20:55;8.30;;;5.63;;
1475;SDS011;730;48.870;12.542;2023-12-14T11:26:04;8.00;;;7.20;;
1475;SDS011;730;48.870;12.542;2023-12-14T11:28:32;8.80;;;4.90;;
1475;SDS011;730;48.870;12.542;2023-12-14T11:31:00;6.07;;;5.17;;
1475;SDS011;730;48.870;12.542;2023-12-14T11:33:27;6.07;;;5.47;;
1475;SDS011;730;48.870;12.542;2023-12-14T11:35:54;5.93;;;4.90;;
1475;SDS011;730;48.870;12.542;2023-12-14T11:38:22;6.03;;;5.43;;
1475;SDS011;730;48.870;12.542;2023-12-14T11:40:49;6.40;;;5.80;;
1475;SDS011;730;48.870;12.542;2023-12-14T11:43:15;6.77;;;5.43;;
1475;SDS011;730;48.870;12.542;2023-12-14T11:45:42;6.60;;;4.67;;
1475;SDS011;730;48.870;12.542;2023-12-14T11:48:09;5.60;;;4.93;;
1475;SDS011;730;48.870;12.542;2023-12-14T11:50:37;6.77;;;5.97;;
1475;SDS011;730;48.870;12.542;2023-12-14T11:53:04;5.67;;;4.73;;
1475;SDS011;730;48.870;12.542;2023-12-14T11:55:34;8.70;;;5.67;;
1475;SDS011;730;48.870;12.542;2023-12-14T11:58:01;8.67;;;5.50;;
1475;SDS011;730;48.870;12.542;2023-12-14T12:00:29;9.17;;;5.77;;
1475;SDS011;730;48.870;12.542;2023-12-14T12:05:44;6.33;;;5.13;;
1475;SDS011;730;48.870;12.542;2023-12-14T12:08:12;6.37;;;5.40;;
1475;SDS011;730;48.870;12.542;2023-12-14T12:10:40;9.60;;;4.60;;
1475;SDS011;730;48.870;12.542;2023-12-14T12:13:08;5.80;;;5.20;;
1475;SDS011;730;48.870;12.542;2023-12-14T12:15:38;7.70;;;5.40;;
1475;SDS011;730;48.870;12.542;2023-12-14T12:18:05;6.80;;;5.77;;
1475;SDS011;730;48.870;12.542;2023-12-14T12:20:33;9.80;;;6.93;;
1475;SDS011;730;48.870;12.542;2023-12-14T12:23:00;9.47;;;6.47;;
1475;SDS011;730;48.870;12.542;2023-12-14T12:25:27;5.47;;;4.97;;
1475;SDS011;730;48.870;12.542;2023-12-14T12:28:00;7.00;;;5.67;;
1475;SDS011;730;48.870;12.542;2023-12-14T12:30:29;5.90;;;5.30;;
1475;SDS011;730;48.870;12.542;2023-12-14T12:32:55;5.20;;;4.60;;
1475;SDS011;730;48.870;12.542;2023-12-14T12:35:22;5.50;;;4.70;;
1475;SDS011;730;48.870;12.542;2023-12-14T12:37:48;5.13;;;4.63;;
1475;SDS011;730;48.870;12.542;2023-12-14T12:40:22;5.33;;;4.57;;
1475;SDS011;730;48.870;12.542;2023-12-14T12:42:51;5.43;;;4.37;;
1475;SDS011;730;48.870;12.542;2023-12-14T12:45:17;4.90;;;3.87;;
1475;SDS011;730;48.870;12.542;2023-12-14T12:47:44;5.30;;;4.00;;
1475;SDS011;730;48.870;12.542;2023-12-14T12:50:11;3.97;;;3.53;;
1475;SDS011;730;48.870;12.542;2023-12-14T12:52:37;4.00;;;2.87;;
1475;SDS011;730;48.870;12.542;2023-12-14T12:55:06;3.33;;;3.03;;
1475;SDS011;730;48.870;12.542;2023-12-14T12:57:33;3.40;;;3.10;;
1475;SDS011;730;48.870;12.542;2023-12-14T12:59:59;6.57;;;5.10;;
1475;SDS011;730;48.870;12.542;2023-12-14T13:02:25;4.93;;;4.00;;
1475;SDS011;730;48.870;12.542;2023-12-14T13:04:51;3.93;;;2.60;;
1475;SDS011;730;48.870;12.542;2023-12-14T13:07:17;3.30;;;3.00;;
1475;SDS011;730;48.870;12.542;2023-12-14T13:09:44;4.90;;;3.47;;
1475;SDS011;730;48.870;12.542;2023-12-14T13:12:10;3.67;;;2.90;;
1475;SDS011;730;48.870;12.542;2023-12-14T13:14:36;3.07;;;2.43;;
1475;SDS011;730;48.870;12.542;2023-12-14T13:17:02;3.00;;;2.23;;
1475;SDS011;730;48.870;12.542;2023-12-14T13:19:28;3.00;;;2.70;;
1475;SDS011;730;48.870;12.542;2023-12-14T13:21:54;3.60;;;2.90;;
1475;SDS011;730;48.870;12.542;2023-12-14T13:24:23;3.00;;;2.60;;
1475;SDS011;730;48.870;12.542;2023-12-14T13:26:49;3.40;;;2.40;;
1475;SDS011;730;48.870;12.542;2023-12-14T13:29:16;3.13;;;2.83;;
1475;SDS011;730;48.870;12.542;2023-12-14T13:31:42;4.17;;;2.90;;
1475;SDS011;730;48.870;12.542;2023-12-14T13:34:08;4.37;;;2.80;;
1475;SDS011;730;48.870;12.542;2023-12-14T13:36:34;3.13;;;2.63;;
1475;SDS011;730;48.870;12.542;2023-12-14T13:39:00;4.40;;;3.13;;
1475;SDS011;730;48.870;12.542;2023-12-14T13:41:27;3.47;;;2.90;;
1475;SDS011;730;48.870;12.542;2023-12-14T13:43:53;4.40;;;2.53;;
1475;SDS011;730;48.870;12.542;2023-12-14T13:46:19;4.03;;;3.10;;
1475;SDS011;730;48.870;12.542;2023-12-14T13:48:45;3.77;;;3.03;;
1475;SDS011;730;48.870;12.542;2023-12-14T13:51:11;3.87;;;3.50;;
1475;SDS011;730;48.870;12.542;2023-12-14T13:53:37;3.43;;;3.00;;
1475;SDS011;730;48.870;12.542;2023-12-14T13:56:04;3.80;;;3.40;;
1475;SDS011;730;48.870;12.542;2023-12-14T13:58:30;8.53;;;3.43;;
1475;SDS011;730;48.870;12.542;2023-12-14T14:01:00;4.47;;;3.80;;
1475;SDS011;730;48.870;12.542;2023-12-14T14:03:26;4.80;;;3.50;;
1475;SDS011;730;48.870;12.542;2023-12-14T14:05:53;4.50;;;3.80;;
1475;SDS011;730;48.870;12.542;2023-12-14T14:08:19;5.60;;;4.20;;
1475;SDS011;730;48.870;12.542;2023-12-14T14:10:46;5.33;;;4.80;;
1475;SDS011;730;48.870;12.542;2023-12-14T14:13:12;4.97;;;4.07;;
1475;SDS011;730;48.870;12.542;2023-12-14T14:15:38;5.73;;;4.83;;
1475;SDS011;730;48.870;12.542;2023-12-14T14:18:04;6.40;;;4.50;;
1475;SDS011;730;48.870;12.542;2023-12-14T14:20:30;5.40;;;4.90;;
1475;SDS011;730;48.870;12.542;2023-12-14T14:22:56;5.47;;;4.97;;
1475;SDS011;730;48.870;12.542;2023-12-14T14:25:25;9.40;;;5.00;;
1475;SDS011;730;48.870;12.542;2023-12-14T14:27:51;5.87;;;4.37;;
1475;SDS011;730;48.870;12.542;2023-12-14T14:30:17;5.28;;;4.07;;
1475;SDS011;730;48.870;12.542;2023-12-14T14:32:44;5.20;;;4.23;;
1475;SDS011;730;48.870;12.542;2023-12-14T14:35:10;5.60;;;4.50;;
1475;SDS011;730;48.870;12.542;2023-12-14T14:37:36;6.43;;;4.63;;
1475;SDS011;730;48.870;12.542;2023-12-14T14:40:03;4.68;;;4.25;;
1475;SDS011;730;48.870;12.542;2023-12-14T14:42:29;5.07;;;4.10;;
1475;SDS011;730;48.870;12.542;2023-12-14T14:44:56;5.65;;;4.85;;
1475;SDS011;730;48.870;12.542;2023-12-14T14:47:22;10.52;;;8.68;;
1475;SDS011;730;48.870;12.542;2023-12-14T14:49:49;5.70;;;5.10;;
1475;SDS011;730;48.870;12.542;2023-12-14T14:52:15;7.65;;;5.07;;
1475;SDS011;730;48.870;12.542;2023-12-14T14:54:42;5.33;;;4.67;;
1475;SDS011;730;48.870;12.542;2023-12-14T14:57:08;5.77;;;4.53;;
1475;SDS011;730;48.870;12.542;2023-12-14T14:59:34;5.00;;;4.50;;
1475;SDS011;730;48.870;12.542;2023-12-14T15:02:00;4.77;;;4.00;;
1475;SDS011;730;48.870;12.542;2023-12-14T15:04:27;3.87;;;3.47;;
1475;SDS011;730;48.870;12.542;2023-12-14T15:06:53;5.03;;;3.93;;
1475;SDS011;730;48.870;12.542;2023-12-14T15:09:19;8.03;;;4.90;;
1475;SDS011;730;48.870;12.542;2023-12-14T15:11:45;11.40;;;7.30;;
1475;SDS011;730;48.870;12.542;2023-12-14T15:14:11;13.53;;;10.50;;
1475;SDS011;730;48.870;12.542;2023-12-14T15:16:37;16.83;;;11.97;;
1475;SDS011;730;48.870;12.542;2023-12-14T15:19:04;13.30;;;11.50;;
1475;SDS011;730;48.870;12.542;2023-12-14T15:21:30;13.10;;;9.00;;